Time;durP1;ratioP1;P1;durP2;ratioP2;P2;SDS_P1;SDS_P2;PMS_P1;PMS_P2;Temp;Humidity;BMP_temperature;BMP_pressure;BME280_temperature;BME280_humidity;BME280_pressure;Samples;Min_cycle;Max_cycle;Signal;HPM_P1;HPM_P2
2024/01/29 00:02:11;;;;;;;1999.90;999.90;;;-1.90;99.90;;;;;;4935517;29;20032;-85
2024/01/29 00:04:36;;;;;;;1999.90;999.90;;;-2.00;99.90;;;;;;4936127;29;20044;-84
2024/01/29 00:07:02;;;;;;;1999.90;999.90;;;-2.00;99.90;;;;;;4936299;29;20461;-85
2024/01/29 00:09:28;;;;;;;1999.90;999.90;;;-2.00;99.90;;;;;;4937286;29;20078;-86
2024/01/29 00:11:54;;;;;;;1999.90;999.90;;;-2.00;99.90;;;;;;4935740;28;20028;-84
2024/01/29 00:14:19;;;;;;;1999.90;999.90;;;-2.00;99.90;;;;;;4939353;28;20479;-85
2024/01/29 00:16:46;;;;;;;1999.90;999.90;;;-2.00;99.90;;;;;;4939378;28;20099;-84
2024/01/29 00:19:12;;;;;;;1999.90;999.90;;;-2.00;99.90;;;;;;4939065;28;20522;-85
2024/01/29 00:21:37;;;;;;;1999.90;999.90;;;-2.10;99.90;;;;;;4938775;28;20040;-85
2024/01/29 00:24:03;;;;;;;1999.90;999.90;;;-2.10;99.90;;;;;;4939441;29;20044;-85
2024/01/29 00:26:29;;;;;;;1999.90;999.90;;;-2.00;99.90;;;;;;4940555;29;20028;-85
2024/01/29 00:28:54;;;;;;;1999.90;999.90;;;-2.00;99.90;;;;;;4939010;28;20036;-85
2024/01/29 00:31:22;;;;;;;1999.90;999.90;;;-2.10;99.90;;;;;;4938777;28;20486;-85
2024/01/29 00:33:48;;;;;;;1999.90;999.90;;;-2.10;99.90;;;;;;4939342;29;20036;-85
2024/01/29 00:36:16;;;;;;;1999.90;999.90;;;-2.20;99.90;;;;;;4940683;28;20043;-85
2024/01/29 00:38:42;;;;;;;1999.90;999.90;;;-2.20;99.90;;;;;;4939178;28;20156;-85
2024/01/29 00:41:08;;;;;;;1999.90;999.90;;;-2.20;99.90;;;;;;4938592;29;20044;-85
2024/01/29 00:43:34;;;;;;;1999.90;999.90;;;-2.30;99.90;;;;;;4938948;28;20115;-85
2024/01/29 00:45:59;;;;;;;1999.90;999.90;;;-2.30;99.90;;;;;;4939235;29;20119;-85
2024/01/29 00:48:25;;;;;;;1999.90;999.90;;;-2.30;99.90;;;;;;4940511;28;20042;-83
2024/01/29 00:50:52;;;;;;;1999.90;999.90;;;-2.30;99.90;;;;;;4939036;28;20119;-85
2024/01/29 00:53:18;;;;;;;1999.90;999.90;;;-2.30;99.90;;;;;;4938383;29;20036;-84
2024/01/29 00:55:45;;;;;;;1999.90;999.90;;;-2.30;99.90;;;;;;4940703;28;20040;-84
2024/01/29 00:58:14;;;;;;;1999.90;999.90;;;-2.30;99.90;;;;;;4947010;28;20072;-85
2024/01/29 01:00:41;;;;;;;1999.90;999.90;;;-2.30;99.90;;;;;;4942912;28;20075;-84
2024/01/29 01:03:08;;;;;;;1999.90;999.90;;;-2.30;99.90;;;;;;4938272;28;20052;-85
2024/01/29 01:05:34;;;;;;;1999.90;999.90;;;-2.40;99.90;;;;;;4940010;28;20743;-85
2024/01/29 01:08:00;;;;;;;1999.90;999.90;;;-2.40;99.90;;;;;;4939836;28;20092;-85
2024/01/29 01:10:26;;;;;;;1999.90;999.90;;;-2.40;99.90;;;;;;4940312;28;20046;-85
2024/01/29 01:12:52;;;;;;;1999.90;999.90;;;-2.40;99.90;;;;;;4937676;28;20048;-85
2024/01/29 01:15:18;;;;;;;1999.90;999.90;;;-2.40;99.90;;;;;;4938635;29;20040;-85
2024/01/29 01:17:45;;;;;;;1999.90;999.90;;;-2.40;99.90;;;;;;4938290;28;20048;-85
2024/01/29 01:20:11;;;;;;;1999.90;999.90;;;-2.40;99.90;;;;;;4938560;28;20040;-85
2024/01/29 01:22:36;;;;;;;1999.90;999.90;;;-2.50;99.90;;;;;;4937927;28;20040;-85
2024/01/29 01:25:02;;;;;;;1999.90;999.90;;;-2.50;99.90;;;;;;4938275;28;20047;-85
2024/01/29 01:27:28;;;;;;;1999.90;999.90;;;-2.50;99.90;;;;;;4939564;28;20467;-85
2024/01/29 01:29:54;;;;;;;1999.90;999.90;;;-2.50;99.90;;;;;;4938500;28;20028;-85
2024/01/29 01:32:20;;;;;;;1999.90;999.90;;;-2.50;99.90;;;;;;4938267;29;20040;-85
2024/01/29 01:34:46;;;;;;;1999.90;999.90;;;-2.50;99.90;;;;;;4941484;28;20479;-85
2024/01/29 01:37:11;;;;;;;1999.90;999.90;;;-2.50;99.90;;;;;;4959869;28;20087;-84
2024/01/29 01:39:37;;;;;;;1999.90;999.90;;;-2.50;99.90;;;;;;4942482;28;20103;-85
2024/01/29 01:42:04;;;;;;;1999.90;999.90;;;-2.50;99.90;;;;;;4937644;28;20368;-83
2024/01/29 01:44:30;;;;;;;1999.90;999.90;;;-2.60;99.90;;;;;;4938160;28;20128;-85
2024/01/29 01:46:56;;;;;;;1999.90;999.90;;;-2.60;99.90;;;;;;4938237;28;20028;-85
2024/01/29 01:49:22;;;;;;;1999.90;999.90;;;-2.50;99.90;;;;;;4937971;29;20889;-84
2024/01/29 01:51:49;;;;;;;1999.90;999.90;;;-2.50;99.90;;;;;;4938540;28;20046;-84
2024/01/29 01:54:15;;;;;;;1999.90;999.90;;;-2.50;99.90;;;;;;4937982;28;20064;-85
2024/01/29 01:56:42;;;;;;;1999.90;999.90;;;-2.50;99.90;;;;;;4939414;28;20056;-85
2024/01/29 01:59:10;;;;;;;1999.90;999.90;;;-2.40;99.90;;;;;;4937805;29;20066;-85
2024/01/29 02:01:35;;;;;;;1999.90;999.90;;;-2.40;99.90;;;;;;4937118;28;20474;-85
2024/01/29 02:04:01;;;;;;;1999.90;999.90;;;-2.40;99.90;;;;;;4939120;29;20044;-85
2024/01/29 02:06:27;;;;;;;1999.90;999.90;;;-2.50;99.90;;;;;;4939150;28;20475;-85
2024/01/29 02:08:54;;;;;;;1999.90;999.90;;;-2.50;99.90;;;;;;4937699;28;20036;-83
2024/01/29 02:11:19;;;;;;;1999.90;999.90;;;-2.50;99.90;;;;;;4937095;28;20040;-85
2024/01/29 02:13:45;;;;;;;1999.90;999.90;;;-2.50;99.90;;;;;;4939070;28;20394;-85
2024/01/29 02:16:10;;;;;;;1999.90;999.90;;;-2.60;99.90;;;;;;4937602;28;20047;-85
2024/01/29 02:18:36;;;;;;;1999.90;999.90;;;-2.50;99.90;;;;;;4948755;23;20053;-84
2024/01/29 02:21:02;;;;;;;1999.90;999.90;;;-2.50;99.90;;;;;;4919388;29;20045;-84
2024/01/29 02:23:28;;;;;;;1999.90;999.90;;;-2.50;99.90;;;;;;4918352;29;20403;-85
2024/01/29 02:25:53;;;;;;;1999.90;999.90;;;-2.50;99.90;;;;;;4918462;29;20044;-84
2024/01/29 02:28:19;;;;;;;1999.90;999.90;;;-2.60;99.90;;;;;;4915739;29;20041;-84
2024/01/29 02:30:44;;;;;;;1999.90;999.90;;;-2.60;99.90;;;;;;4918362;29;20519;-84
2024/01/29 02:33:10;;;;;;;1999.90;999.90;;;-2.60;99.90;;;;;;4917938;29;20032;-85
2024/01/29 02:35:36;;;;;;;1999.90;999.90;;;-2.70;99.90;;;;;;4917809;29;20033;-84
2024/01/29 02:38:01;;;;;;;1999.90;999.90;;;-2.70;99.90;;;;;;4918024;29;20039;-84
2024/01/29 02:40:27;;;;;;;1999.90;999.90;;;-2.60;99.90;;;;;;4918362;29;20180;-84
2024/01/29 02:42:53;;;;;;;1999.90;999.90;;;-2.70;99.90;;;;;;4917590;29;20092;-84
2024/01/29 02:45:18;;;;;;;1999.90;999.90;;;-2.60;99.90;;;;;;4919435;29;20045;-84
2024/01/29 02:47:44;;;;;;;1999.90;999.90;;;-2.60;99.90;;;;;;4918090;29;20037;-84
2024/01/29 02:50:09;;;;;;;1999.90;999.90;;;-2.70;99.90;;;;;;4918259;29;20387;-84
2024/01/29 02:52:35;;;;;;;1999.90;999.90;;;-2.60;99.90;;;;;;4917591;29;20059;-84
2024/01/29 02:55:01;;;;;;;1999.90;999.90;;;-2.70;99.90;;;;;;4918099;29;20518;-84
2024/01/29 02:57:26;;;;;;;1999.90;999.90;;;-2.70;99.90;;;;;;4918067;29;20060;-84
2024/01/29 02:59:52;;;;;;;1999.90;999.90;;;-2.70;99.90;;;;;;4917929;29;20414;-84
2024/01/29 03:02:18;;;;;;;1999.90;999.90;;;-2.70;99.90;;;;;;4918554;29;20039;-84
2024/01/29 03:04:44;;;;;;;1999.90;999.90;;;-2.60;99.90;;;;;;4919287;29;20055;-84
2024/01/29 03:07:10;;;;;;;1999.90;999.90;;;-2.60;99.90;;;;;;4917938;29;20059;-84
2024/01/29 03:09:36;;;;;;;1999.90;999.90;;;-2.60;99.90;;;;;;4917584;29;20040;-84
2024/01/29 03:12:02;;;;;;;1999.90;999.90;;;-2.60;99.90;;;;;;4918720;29;20033;-84
2024/01/29 03:14:27;;;;;;;1999.90;999.90;;;-2.60;99.90;;;;;;4918978;29;20036;-84
2024/01/29 03:16:53;;;;;;;1999.90;999.90;;;-2.60;99.90;;;;;;4917822;29;20037;-84
2024/01/29 03:19:20;;;;;;;1999.90;999.90;;;-2.70;99.90;;;;;;4917130;29;20045;-84
2024/01/29 03:21:46;;;;;;;1999.90;999.90;;;-2.70;99.90;;;;;;4917066;29;20518;-83
2024/01/29 03:24:12;;;;;;;1999.90;999.90;;;-2.70;99.90;;;;;;4919150;29;20139;-84
2024/01/29 03:26:37;;;;;;;1999.90;999.90;;;-2.70;99.90;;;;;;4917643;29;20036;-84
2024/01/29 03:29:03;;;;;;;1999.90;999.90;;;-2.70;99.90;;;;;;4917501;29;20041;-84
2024/01/29 03:31:29;;;;;;;1999.90;999.90;;;-2.70;99.90;;;;;;4916838;29;20033;-84
2024/01/29 03:33:54;;;;;;;1999.90;999.90;;;-2.70;99.90;;;;;;4917561;29;20037;-84
2024/01/29 03:36:20;;;;;;;1999.90;999.90;;;-2.70;99.90;;;;;;4917524;29;20388;-84
2024/01/29 03:38:45;;;;;;;1999.90;999.90;;;-2.70;99.90;;;;;;4918504;29;20084;-84
2024/01/29 03:41:11;;;;;;;1999.90;999.90;;;-2.70;99.90;;;;;;4916928;29;20510;-84
2024/01/29 03:43:37;;;;;;;1999.90;999.90;;;-2.70;99.90;;;;;;4918683;29;20398;-84
2024/01/29 03:46:02;;;;;;;1999.90;999.90;;;-2.70;99.90;;;;;;4917234;29;20044;-84
2024/01/29 03:48:28;;;;;;;1999.90;999.90;;;-2.70;99.90;;;;;;4917231;29;20043;-84
2024/01/29 03:50:54;;;;;;;1999.90;999.90;;;-2.70;99.90;;;;;;4916355;29;20044;-84
2024/01/29 03:53:20;;;;;;;1999.90;999.90;;;-2.70;99.90;;;;;;4917923;29;20514;-84
2024/01/29 03:55:46;;;;;;;1999.90;999.90;;;-2.70;99.90;;;;;;4917168;29;20073;-84
2024/01/29 03:58:12;;;;;;;1999.90;999.90;;;-2.70;99.90;;;;;;4918592;29;20040;-84
2024/01/29 04:00:38;;;;;;;1999.90;999.90;;;-2.70;99.90;;;;;;4917210;29;20037;-84
2024/01/29 04:03:04;;;;;;;1999.90;999.90;;;-2.70;99.90;;;;;;4916276;29;20040;-85
2024/01/29 04:05:30;;;;;;;1999.90;999.90;;;-2.70;99.90;;;;;;4917090;29;20549;-84
2024/01/29 04:07:55;;;;;;;1999.90;999.90;;;-2.70;99.90;;;;;;4916870;29;20087;-84
2024/01/29 04:10:21;;;;;;;1999.90;999.90;;;-2.60;99.90;;;;;;4917232;29;20033;-84
2024/01/29 04:12:47;;;;;;;1999.90;999.90;;;-2.60;99.90;;;;;;4916583;29;20037;-84
2024/01/29 04:15:13;;;;;;;1999.90;999.90;;;-2.60;99.90;;;;;;4918362;29;20040;-84
2024/01/29 04:17:39;;;;;;;1999.90;999.90;;;-2.60;99.90;;;;;;4916962;29;20056;-84
2024/01/29 04:20:05;;;;;;;1999.90;999.90;;;-2.60;99.90;;;;;;4916719;29;20455;-84
2024/01/29 04:22:34;;;;;;;1999.90;999.90;;;-2.60;99.90;;;;;;4916327;29;20033;-84
2024/01/29 04:25:04;;;;;;;1999.90;999.90;;;-2.60;99.90;;;;;;4918212;29;20525;-84
2024/01/29 04:27:33;;;;;;;1999.90;999.90;;;-2.60;99.90;;;;;;4916973;29;20044;-84
2024/01/29 04:29:59;;;;;;;1999.90;999.90;;;-2.60;99.90;;;;;;4916899;29;20041;-84
2024/01/29 04:32:25;;;;;;;1999.90;999.90;;;-2.60;99.90;;;;;;4916346;29;20061;-84
2024/01/29 04:34:50;;;;;;;1999.90;999.90;;;-2.60;99.90;;;;;;4916905;29;20418;-84
2024/01/29 04:37:16;;;;;;;1999.90;999.90;;;-2.60;99.90;;;;;;4916853;29;20442;-84
2024/01/29 04:39:42;;;;;;;1999.90;999.90;;;-2.60;99.90;;;;;;4916375;29;20105;-84
2024/01/29 04:42:07;;;;;;;1999.90;999.90;;;-2.60;99.90;;;;;;4916122;29;20036;-84
2024/01/29 04:44:33;;;;;;;1999.90;999.90;;;-2.60;99.90;;;;;;4916511;29;20095;-84
2024/01/29 04:46:59;;;;;;;1999.90;999.90;;;-2.60;99.90;;;;;;4918674;29;20092;-84
2024/01/29 04:49:25;;;;;;;1999.90;999.90;;;-2.60;99.90;;;;;;4917678;29;20068;-84
2024/01/29 04:51:50;;;;;;;1999.90;999.90;;;-2.50;99.90;;;;;;4916890;29;20176;-83
2024/01/29 04:54:16;;;;;;;1999.90;999.90;;;-2.50;99.90;;;;;;4916863;29;20570;-84
2024/01/29 04:56:42;;;;;;;1999.90;999.90;;;-2.50;99.90;;;;;;4917852;29;20047;-84
2024/01/29 04:59:07;;;;;;;1999.90;999.90;;;-2.40;99.90;;;;;;4918303;29;20041;-83
2024/01/29 05:01:33;;;;;;;1999.90;999.90;;;-2.40;99.90;;;;;;4919105;29;20112;-84
2024/01/29 05:03:58;;;;;;;1999.90;999.90;;;-2.40;99.90;;;;;;4919670;29;20170;-84
2024/01/29 05:06:24;;;;;;;1999.90;999.90;;;-2.40;99.90;;;;;;4919750;29;20041;-84
2024/01/29 05:08:49;;;;;;;1999.90;999.90;;;-2.40;99.90;;;;;;4919271;29;20044;-84
2024/01/29 05:11:15;;;;;;;1999.90;999.90;;;-2.40;99.90;;;;;;4919026;29;20037;-84
2024/01/29 05:13:41;;;;;;;1999.90;999.90;;;-2.40;99.90;;;;;;4919723;29;20041;-84
2024/01/29 05:16:06;;;;;;;1999.90;999.90;;;-2.40;99.90;;;;;;4920192;29;20043;-84
2024/01/29 05:18:33;;;;;;;1999.90;999.90;;;-2.50;99.90;;;;;;4921708;29;20175;-82
2024/01/29 05:20:58;;;;;;;1999.90;999.90;;;-2.40;99.90;;;;;;4922816;29;20100;-84
2024/01/29 05:23:24;;;;;;;1999.90;999.90;;;-2.40;99.90;;;;;;4919389;29;20119;-84
2024/01/29 05:25:50;;;;;;;1999.90;999.90;;;-2.40;99.90;;;;;;4920920;29;20044;-84
2024/01/29 05:28:16;;;;;;;1999.90;999.90;;;-2.40;99.90;;;;;;4919160;29;20039;-83
2024/01/29 05:30:41;;;;;;;1999.90;999.90;;;-2.40;99.90;;;;;;4919478;29;20040;-84
2024/01/29 05:33:07;;;;;;;1999.90;999.90;;;-2.40;99.90;;;;;;4920240;29;20065;-84
2024/01/29 05:35:33;;;;;;;1999.90;999.90;;;-2.40;99.90;;;;;;4919152;29;20092;-84
2024/01/29 05:37:58;;;;;;;1999.90;999.90;;;-2.30;99.90;;;;;;4920258;29;20033;-83
2024/01/29 05:40:24;;;;;;;1999.90;999.90;;;-2.30;99.90;;;;;;4919124;29;20033;-84
2024/01/29 05:42:53;;;;;;;1999.90;999.90;;;-2.30;99.90;;;;;;4918220;29;20033;-83
2024/01/29 05:45:19;;;;;;;1999.90;999.90;;;-2.30;99.90;;;;;;4920429;29;20049;-83
2024/01/29 05:47:45;;;;;;;1999.90;999.90;;;-2.30;99.90;;;;;;4918513;29;20069;-84
2024/01/29 05:50:11;;;;;;;1999.90;999.90;;;-2.20;99.90;;;;;;4918653;29;20036;-84
2024/01/29 05:52:37;;;;;;;1999.90;999.90;;;-2.20;99.90;;;;;;4918518;29;20028;-83
2024/01/29 05:55:02;;;;;;;1999.90;999.90;;;-2.20;99.90;;;;;;4918969;29;20128;-84
2024/01/29 05:57:28;;;;;;;1999.90;999.90;;;-2.20;99.90;;;;;;4917683;29;20032;-84
2024/01/29 05:59:54;;;;;;;1999.90;999.90;;;-2.20;99.90;;;;;;4920180;29;20037;-83
2024/01/29 06:02:20;;;;;;;1999.90;999.90;;;-2.20;99.90;;;;;;4918261;29;20040;-84
2024/01/29 06:04:46;;;;;;;1999.90;999.90;;;-2.10;99.90;;;;;;4918763;29;20452;-82
2024/01/29 06:07:12;;;;;;;1999.90;999.90;;;-2.20;99.90;;;;;;4919686;29;20092;-83
2024/01/29 06:09:37;;;;;;;1999.90;999.90;;;-2.20;99.90;;;;;;4917665;29;20093;-83
2024/01/29 06:12:03;;;;;;;1999.90;999.90;;;-2.20;99.90;;;;;;4919591;29;20088;-87
2024/01/29 06:14:30;;;;;;;1999.90;999.90;;;-2.20;99.90;;;;;;4918899;29;20048;-84
2024/01/29 06:16:56;;;;;;;1999.90;999.90;;;-2.30;99.90;;;;;;4918619;29;20795;-84
2024/01/29 06:19:22;;;;;;;1999.90;999.90;;;-2.30;99.90;;;;;;4919712;29;20036;-83
2024/01/29 06:21:49;;;;;;;1999.90;999.90;;;-2.30;99.90;;;;;;4917779;29;20033;-84
2024/01/29 06:24:14;;;;;;;1999.90;999.90;;;-2.30;99.90;;;;;;4919886;29;20048;-84
2024/01/29 06:26:41;;;;;;;1999.90;999.90;;;-2.30;99.90;;;;;;4919946;29;20039;-83
2024/01/29 06:29:06;;;;;;;1999.90;999.90;;;-2.40;99.90;;;;;;4918136;29;20051;-88
2024/01/29 06:31:32;;;;;;;1999.90;999.90;;;-2.40;99.90;;;;;;4917779;29;20422;-83
2024/01/29 06:33:58;;;;;;;1999.90;999.90;;;-2.40;99.90;;;;;;4918280;29;20107;-87
2024/01/29 06:36:23;;;;;;;1999.90;999.90;;;-2.40;99.90;;;;;;4918675;29;20032;-86
2024/01/29 06:38:49;;;;;;;1999.90;999.90;;;-2.40;99.90;;;;;;4919641;29;20040;-84
2024/01/29 06:41:25;;;;;;;1999.90;999.90;;;-2.40;99.90;;;;;;4919668;29;20044;-86
2024/01/29 06:43:52;;;;;;;1999.90;999.90;;;-2.40;99.90;;;;;;4918071;29;20045;-86
2024/01/29 06:46:18;;;;;;;1999.90;999.90;;;-2.40;99.90;;;;;;4917866;29;20115;-86
2024/01/29 06:48:44;;;;;;;1999.90;999.90;;;-2.40;99.90;;;;;;4919040;29;20107;-86
2024/01/29 06:51:09;;;;;;;1999.90;999.90;;;-2.40;99.90;;;;;;4917542;29;20041;-86
2024/01/29 06:53:36;;;;;;;1999.90;999.90;;;-2.40;99.90;;;;;;4917908;29;20040;-87
2024/01/29 06:56:04;;;;;;;1999.90;999.90;;;-2.40;99.90;;;;;;4917638;29;20072;-87
2024/01/29 06:58:30;;;;;;;1999.90;999.90;;;-2.40;99.90;;;;;;4917646;29;20060;-86
2024/01/29 07:00:56;;;;;;;1999.90;999.90;;;-2.40;99.90;;;;;;4917584;29;20047;-86
2024/01/29 07:03:21;;;;;;;1999.90;999.90;;;-2.40;99.90;;;;;;4917364;29;20044;-86
2024/01/29 07:05:50;;;;;;;1999.90;999.90;;;-2.40;99.90;;;;;;4916284;29;20044;-86
2024/01/29 07:08:16;;;;;;;1999.90;999.90;;;-2.40;99.90;;;;;;4900173;29;20044;-86
2024/01/29 07:10:42;;;;;;;1999.90;999.90;;;-2.30;99.90;;;;;;4909947;29;20051;-85
2024/01/29 07:13:08;;;;;;;1999.90;999.90;;;-2.20;99.90;;;;;;4913919;29;20041;-87
2024/01/29 07:15:33;;;;;;;1999.90;999.90;;;-2.20;99.90;;;;;;4898648;29;20407;-86
2024/01/29 07:17:59;;;;;;;1999.90;999.90;;;-2.00;99.90;;;;;;4898166;29;20505;-84
2024/01/29 07:20:27;;;;;;;1999.90;999.90;;;-1.90;99.90;;;;;;4898715;29;20033;-85
2024/01/29 07:22:53;;;;;;;1999.90;999.90;;;-1.80;99.90;;;;;;4899379;29;20480;-84
2024/01/29 07:25:19;;;;;;;1999.90;999.90;;;-1.80;99.90;;;;;;4898491;29;20052;-85
2024/01/29 07:27:44;;;;;;;1999.90;999.90;;;-1.70;99.90;;;;;;4911648;29;20044;-84
2024/01/29 07:30:11;;;;;;;1999.90;999.90;;;-1.70;99.90;;;;;;4899382;29;20045;-84
2024/01/29 07:32:36;;;;;;;1999.90;999.90;;;-1.60;99.90;;;;;;4898419;29;20037;-84
2024/01/29 07:35:03;;;;;;;1999.90;999.90;;;-1.60;99.90;;;;;;4898728;29;20369;-85
2024/01/29 07:37:29;;;;;;;1999.90;999.90;;;-1.60;99.90;;;;;;4898909;29;20040;-84
2024/01/29 07:39:55;;;;;;;1999.90;999.90;;;-1.50;99.90;;;;;;4902489;29;20570;-84
2024/01/29 07:42:21;;;;;;;1999.90;999.90;;;-1.50;99.90;;;;;;4917226;29;20487;-84
2024/01/29 07:44:48;;;;;;;1999.90;999.90;;;-1.50;99.90;;;;;;4918897;29;20040;-83
2024/01/29 07:47:14;;;;;;;1999.90;999.90;;;-1.50;99.90;;;;;;4917945;29;20039;-84
2024/01/29 07:49:39;;;;;;;1999.90;999.90;;;-1.50;99.90;;;;;;4917591;29;20041;-84
2024/01/29 07:52:05;;;;;;;1999.90;999.90;;;-1.50;99.90;;;;;;4917213;29;20052;-86
2024/01/29 07:54:31;;;;;;;1999.90;999.90;;;-1.40;99.90;;;;;;4916860;29;20498;-85
2024/01/29 07:56:57;;;;;;;1999.90;999.90;;;-1.40;99.90;;;;;;4915919;29;20602;-86
2024/01/29 07:59:23;;;;;;;1999.90;999.90;;;-1.40;99.90;;;;;;4916831;29;20047;-85
2024/01/29 08:01:49;;;;;;;1999.90;999.90;;;-1.40;99.90;;;;;;4912144;29;20069;-85
2024/01/29 08:04:14;;;;;;;1999.90;999.90;;;-1.40;99.90;;;;;;4917449;29;20052;-85
2024/01/29 08:06:40;;;;;;;1999.90;999.90;;;-1.40;99.90;;;;;;4921937;29;20107;-85
2024/01/29 08:09:05;;;;;;;1999.90;999.90;;;-1.40;99.90;;;;;;4916798;29;20492;-85
2024/01/29 08:11:31;;;;;;;1999.90;999.90;;;-1.40;99.90;;;;;;4911993;29;20029;-83
2024/01/29 08:13:58;;;;;;;1999.90;999.90;;;-1.30;99.90;;;;;;4910183;29;20040;-84
2024/01/29 08:16:24;;;;;;;1999.90;999.90;;;-1.30;99.90;;;;;;4913828;29;20104;-85
2024/01/29 08:18:50;;;;;;;1999.90;999.90;;;-1.20;99.90;;;;;;4897478;29;20139;-84
2024/01/29 08:21:16;;;;;;;1999.90;999.90;;;-1.20;99.90;;;;;;4908678;29;20041;-84
2024/01/29 08:23:42;;;;;;;1999.90;999.90;;;-1.10;99.90;;;;;;4916770;29;20036;-84
2024/01/29 08:26:07;;;;;;;1999.90;999.90;;;-1.20;99.90;;;;;;4916728;29;20043;-84
2024/01/29 08:28:33;;;;;;;1999.90;999.90;;;-1.10;99.90;;;;;;4906547;29;20407;-84
2024/01/29 08:30:59;;;;;;;1999.90;999.90;;;-1.00;99.90;;;;;;4897342;29;20041;-85
2024/01/29 08:33:25;;;;;;;1999.90;999.90;;;-1.00;99.90;;;;;;4898272;29;20512;-86
2024/01/29 08:35:51;;;;;;;1999.90;999.90;;;-1.00;99.90;;;;;;4901024;29;20499;-84
2024/01/29 08:38:17;;;;;;;1999.90;999.90;;;-0.90;99.90;;;;;;4909117;29;20045;-84
2024/01/29 08:40:42;;;;;;;1999.90;999.90;;;-0.90;99.90;;;;;;4919958;29;20051;-84
2024/01/29 08:43:08;;;;;;;1999.90;999.90;;;-0.80;99.90;;;;;;4920006;29;20033;-84
2024/01/29 08:45:35;;;;;;;1999.90;999.90;;;-0.80;99.90;;;;;;4917220;29;20478;-84
2024/01/29 08:48:03;;;;;;;1999.90;999.90;;;-0.70;99.90;;;;;;4907809;29;20561;-85
2024/01/29 08:50:32;;;;;;;1999.90;999.90;;;-0.70;99.90;;;;;;4917429;29;20511;-84
2024/01/29 08:52:57;;;;;;;1999.90;999.90;;;-0.60;99.90;;;;;;4902032;29;20045;-85
2024/01/29 08:55:23;;;;;;;1999.90;999.90;;;-0.60;99.90;;;;;;4902343;29;20381;-84
2024/01/29 08:57:49;;;;;;;1999.90;999.90;;;-0.50;99.90;;;;;;4911606;29;20080;-84
2024/01/29 09:00:15;;;;;;;1999.90;999.90;;;-0.50;99.90;;;;;;4917190;29;20080;-84
2024/01/29 09:02:41;;;;;;;1999.90;999.90;;;-0.40;99.90;;;;;;4912264;29;20063;-84
2024/01/29 09:05:10;;;;;;;1999.90;999.90;;;-0.40;99.90;;;;;;4920880;29;20048;-82
2024/01/29 09:07:35;;;;;;;1999.90;999.90;;;-0.30;99.90;;;;;;4921495;29;20032;-82
2024/01/29 09:10:01;;;;;;;1999.90;999.90;;;-0.20;99.90;;;;;;4911490;29;20049;-82
2024/01/29 09:12:27;;;;;;;1999.90;999.90;;;-0.20;99.90;;;;;;4917056;29;20445;-83
2024/01/29 09:14:52;;;;;;;1999.90;999.90;;;-0.10;99.90;;;;;;4902066;29;20112;-83
2024/01/29 09:17:18;;;;;;;1999.90;999.90;;;0.00;99.90;;;;;;4919203;29;20072;-83
2024/01/29 09:19:45;;;;;;;1999.90;999.90;;;0.00;99.90;;;;;;4919611;29;20138;-82
2024/01/29 09:22:11;;;;;;;1999.90;999.90;;;0.00;99.90;;;;;;4920776;29;20041;-83
2024/01/29 09:24:37;;;;;;;1999.90;999.90;;;0.00;99.90;;;;;;4916530;29;20052;-83
2024/01/29 09:27:02;;;;;;;1999.90;999.90;;;0.10;99.90;;;;;;4931570;29;20033;-82
2024/01/29 09:29:28;;;;;;;1999.90;999.90;;;0.10;99.90;;;;;;4919520;29;20582;-83
2024/01/29 09:31:53;;;;;;;1999.90;999.90;;;0.10;99.90;;;;;;4921767;29;20029;-83
2024/01/29 09:34:20;;;;;;;1999.90;999.90;;;0.10;99.90;;;;;;4915583;29;20131;-83
2024/01/29 09:36:46;;;;;;;1999.90;999.90;;;0.20;99.90;;;;;;4901289;29;20033;-83
2024/01/29 09:39:12;;;;;;;1999.90;999.90;;;0.20;99.90;;;;;;4900590;29;20510;-83
2024/01/29 09:41:38;;;;;;;1999.90;999.90;;;0.20;99.90;;;;;;4916175;29;20037;-83
2024/01/29 09:44:12;;;;;;;1999.90;999.90;;;0.30;99.90;;;;;;4900619;29;20097;-84
2024/01/29 09:46:40;;;;;;;1999.90;999.90;;;0.30;99.90;;;;;;4912186;29;20048;-83
2024/01/29 09:49:09;;;;;;;1999.90;999.90;;;0.30;99.90;;;;;;4919693;29;20036;-83
2024/01/29 09:51:35;;;;;;;1999.90;999.90;;;0.30;99.90;;;;;;4916100;29;20033;-85
2024/01/29 09:54:03;;;;;;;1999.90;999.90;;;0.30;99.90;;;;;;4900596;29;20029;-85
2024/01/29 09:56:28;;;;;;;1999.90;999.90;;;0.40;99.90;;;;;;4918330;29;20044;-83
2024/01/29 09:58:55;;;;;;;1999.90;999.90;;;0.40;99.90;;;;;;4918620;29;20563;-85
2024/01/29 10:01:22;;;;;;;1999.90;999.90;;;0.50;99.90;;;;;;4914755;29;20043;-85
2024/01/29 10:03:48;;;;;;;1999.90;999.90;;;0.50;99.90;;;;;;4899583;29;20381;-86
2024/01/29 10:06:14;;;;;;;1999.90;999.90;;;0.50;99.90;;;;;;4899873;29;20426;-86
2024/01/29 10:08:40;;;;;;;1999.90;999.90;;;0.60;99.90;;;;;;4899666;29;20037;-86
2024/01/29 10:11:07;;;;;;;1999.90;999.90;;;0.60;99.90;;;;;;4899534;29;20518;-89
2024/01/29 10:13:32;;;;;;;1999.90;999.90;;;0.60;99.90;;;;;;4900014;29;20105;-86
2024/01/29 10:15:58;;;;;;;1999.90;999.90;;;0.70;99.90;;;;;;4899917;29;20507;-88
2024/01/29 10:18:23;;;;;;;1999.90;999.90;;;0.70;99.90;;;;;;4902657;29;20132;-88
2024/01/29 10:21:03;;;;;;;1999.90;999.90;;;0.80;99.90;;;;;;4918800;29;20045;-88
2024/01/29 10:23:28;;;;;;;1999.90;999.90;;;0.80;99.90;;;;;;4932467;28;20071;-88
2024/01/29 10:25:59;;;;;;;1999.90;999.90;;;0.80;99.90;;;;;;4905182;29;20080;-89
2024/01/29 10:28:26;;;;;;;1999.90;999.90;;;0.80;99.90;;;;;;4899678;29;20045;-88
2024/01/29 10:30:55;;;;;;;1999.90;999.90;;;0.80;99.90;;;;;;4901695;29;20078;-88
2024/01/29 10:33:24;;;;;;;1999.90;999.90;;;1.00;99.90;;;;;;4899554;29;20048;-87
2024/01/29 10:35:50;;;;;;;1999.90;999.90;;;1.00;99.90;;;;;;4903702;29;20040;-87
2024/01/29 10:38:24;;;;;;;1999.90;999.90;;;0.90;99.90;;;;;;4907890;29;20041;-87
2024/01/29 10:40:51;;;;;;;1999.90;999.90;;;1.00;99.90;;;;;;4899976;29;20069;-87
2024/01/29 10:43:20;;;;;;;1999.90;999.90;;;1.10;99.90;;;;;;4913392;29;20041;-88
2024/01/29 10:45:50;;;;;;;1999.90;999.90;;;1.10;99.90;;;;;;4899425;29;20041;-88
2024/01/29 10:48:23;;;;;;;1999.90;999.90;;;1.20;99.90;;;;;;4910901;29;20516;-87
2024/01/29 10:50:50;;;;;;;1999.90;999.90;;;1.40;99.90;;;;;;4899381;29;20069;-87
2024/01/29 10:53:17;;;;;;;1999.90;999.90;;;1.30;99.90;;;;;;4913652;29;20539;-88
2024/01/29 10:55:51;;;;;;;1999.90;999.90;;;1.40;99.90;;;;;;4911797;29;20044;-88
2024/01/29 10:58:18;;;;;;;1999.90;999.90;;;1.40;99.90;;;;;;4914900;29;20041;-88
2024/01/29 11:00:44;;;;;;;1999.90;999.90;;;1.60;99.90;;;;;;4899522;29;20169;-88
2024/01/29 11:03:12;;;;;;;1999.90;999.90;;;1.80;99.90;;;;;;4900050;29;20043;-88
2024/01/29 11:05:40;;;;;;;1999.90;999.90;;;2.00;99.90;;;;;;4918636;29;20811;-88
2024/01/29 11:08:11;;;;;;;1999.90;999.90;;;2.10;99.90;;;;;;4910449;29;20033;-88
2024/01/29 11:10:37;;;;;;;1999.90;999.90;;;2.20;99.90;;;;;;4901645;29;20045;-87
2024/01/29 11:13:04;;;;;;;1999.90;999.90;;;2.40;99.90;;;;;;4914715;29;20476;-87
2024/01/29 11:15:31;;;;;;;1999.90;999.90;;;2.50;99.90;;;;;;4917445;29;20111;-87
2024/01/29 11:17:57;;;;;;;1999.90;999.90;;;2.60;99.90;;;;;;4905598;29;20040;-87
2024/01/29 11:20:23;;;;;;;1999.90;999.90;;;2.70;99.90;;;;;;4909423;29;20040;-88
2024/01/29 11:22:51;;;;;;;1999.90;999.90;;;2.80;99.90;;;;;;4916943;29;20122;-88
2024/01/29 11:25:17;;;;;;;1999.90;999.90;;;2.90;99.90;;;;;;4917871;29;20066;-90
2024/01/29 11:27:47;;;;;;;1999.90;999.90;;;3.00;99.90;;;;;;4917293;29;20127;-87
2024/01/29 11:30:27;;;;;;;1999.90;999.90;;;3.20;99.90;;;;;;4914168;29;20037;-88
2024/01/29 11:32:55;;;;;;;1999.90;999.90;;;3.40;99.90;;;;;;4898583;29;20033;-89
2024/01/29 11:35:23;;;;;;;1999.90;999.90;;;3.60;99.90;;;;;;4899089;29;20040;-87
2024/01/29 11:37:50;;;;;;;1999.90;999.90;;;3.70;99.90;;;;;;4898621;29;20166;-87
2024/01/29 11:40:32;;;;;;;1999.90;999.90;;;3.70;99.90;;;;;;4899708;29;20036;-87
2024/01/29 11:42:58;;;;;;;1999.90;999.90;;;3.90;99.90;;;;;;4899103;29;20603;-87
2024/01/29 11:45:27;;;;;;;1999.90;999.90;;;4.00;99.90;;;;;;4898737;29;20051;-85
2024/01/29 11:47:53;;;;;;;1999.90;999.90;;;4.10;99.90;;;;;;4913558;29;20115;-85
2024/01/29 11:50:18;;;;;;;1999.90;999.90;;;4.10;99.90;;;;;;4918740;29;20040;-85
2024/01/29 11:52:45;;;;;;;1999.90;999.90;;;4.20;99.90;;;;;;4917224;29;20039;-85
2024/01/29 11:55:11;;;;;;;1999.90;999.90;;;4.30;99.90;;;;;;4917611;29;20135;-87
2024/01/29 11:57:36;;;;;;;1999.90;999.90;;;4.30;99.90;;;;;;4914275;29;20488;-87